Girouxville, Canada
Current Conditions -  °F | °C
As of 1:00 PM on Sunday 23 Nov 2014 (Local Time) from CYPE Reporting Station
Broken Clouds Broken Clouds  
Wind Chill:   Ceiling: 6000
Heat Index:   Visibility: 15mi
Dew Point:   Wind: 5mph
Humidity: 92%   Direction: 250°WSW
Pressure: 29.64"   Gusts: NA
Location:  55.75°N, 117.33°W
Report Text: CYPE 232000Z 25004KT 15SM BKN060 BKN250 M13/M14 A2964 RMK SC7CI1 CI TR SLP085
Loading
Personal Weather Stations






























Interactive Weather Map New forecast layout! Learn more

10-Day Weather Forecast

Advertisements
Track Severe Weather on mobile